Terminal Aerodrome Forecast
Issued by NWS

Home | Current Version | Previous Version | Text Only | Print | Product List | Glossary On
Versions: 1 2 3 4 5 6 7 8 9 10 11 12 13 14 15 16 17 18 19 20 21 22 23 24
000
FTUS46 KMFR 280617 AAA
TAFRBG
TAF AMD
KRBG 280617Z 2806/2906 17003KT 5SM -RA BR BKN060 OVC080
     FM280900 17003KT 5SM -RA BR FEW010 SCT020 OVC035 WS020/21030KT
     FM281900 19007KT 5SM -SHRA SCT020 BKN030 OVC035
     FM282300 19007KT P6SM -SHRA SCT020 BKN035 OVC050
     FM290500 20003KT 5SM -RA SCT015 OVC030=

USA.gov is the U.S. government's official web portal to all federal, state and local government web resources and services.